Time;durP1;ratioP1;P1;durP2;ratioP2;P2;SDS_P1;SDS_P2;PMS_P1;PMS_P2;Temp;Humidity;BMP_temperature;BMP_pressure;BME280_temperature;BME280_humidity;BME280_pressure;Samples;Min_cycle;Max_cycle;Signal;HPM_P1;HPM_P2
2023/10/22 00:01:54;;;;;;;3.22;0.60;;;12.80;99.90;;;;;;5023524;28;20128;-65
2023/10/22 00:04:20;;;;;;;5.70;1.08;;;12.80;99.90;;;;;;5025364;28;20633;-65
2023/10/22 00:06:47;;;;;;;3.78;0.80;;;12.80;99.90;;;;;;5025729;28;20046;-65
2023/10/22 00:09:13;;;;;;;2.67;0.75;;;12.80;99.90;;;;;;5006368;28;20056;-65
2023/10/22 00:11:38;;;;;;;5.13;0.60;;;12.80;99.90;;;;;;5008183;28;20046;-66
2023/10/22 00:14:04;;;;;;;4.88;1.42;;;12.80;99.90;;;;;;5026125;28;20049;-65
2023/10/22 00:16:30;;;;;;;6.88;1.30;;;12.80;99.90;;;;;;5026138;28;20052;-65
2023/10/22 00:18:56;;;;;;;1.85;0.70;;;12.80;99.90;;;;;;5030185;28;20076;-65
2023/10/22 00:21:21;;;;;;;6.38;0.70;;;12.80;99.90;;;;;;5010769;28;20518;-65
2023/10/22 00:23:47;;;;;;;3.85;0.65;;;12.70;99.90;;;;;;5030409;28;20045;-65
2023/10/22 00:26:14;;;;;;;1.65;0.63;;;12.70;99.90;;;;;;5019403;28;20058;-65
2023/10/22 00:28:39;;;;;;;1.90;0.70;;;12.70;99.90;;;;;;5029503;28;20115;-65
2023/10/22 00:31:05;;;;;;;1.80;0.47;;;12.70;99.90;;;;;;5029528;28;20057;-65
2023/10/22 00:33:31;;;;;;;1.63;0.63;;;12.70;99.90;;;;;;5010816;28;20052;-65
2023/10/22 00:35:58;;;;;;;2.35;0.73;;;12.60;99.90;;;;;;5007600;28;20030;-65
2023/10/22 00:38:25;;;;;;;4.03;0.55;;;12.60;99.90;;;;;;5021187;28;20380;-65
2023/10/22 00:40:50;;;;;;;2.60;0.65;;;12.50;99.90;;;;;;5030095;28;20087;-65
2023/10/22 00:43:16;;;;;;;3.10;0.77;;;12.50;99.90;;;;;;5028297;28;20049;-65
2023/10/22 00:45:42;;;;;;;3.13;0.70;;;12.50;99.90;;;;;;5029967;28;20068;-65
2023/10/22 00:48:10;;;;;;;1.85;0.70;;;12.50;99.90;;;;;;5024289;28;20569;-65
2023/10/22 00:50:39;;;;;;;5.45;0.65;;;12.50;99.90;;;;;;5027957;28;20103;-65
2023/10/22 00:53:06;;;;;;;1.80;0.52;;;12.40;99.90;;;;;;5029363;28;20507;-65
2023/10/22 00:55:36;;;;;;;3.22;0.68;;;12.40;99.90;;;;;;5027663;28;20487;-65
2023/10/22 00:58:03;;;;;;;7.22;0.70;;;12.40;99.90;;;;;;5028733;28;20061;-64
2023/10/22 01:00:28;;;;;;;2.83;0.75;;;12.40;99.90;;;;;;5028324;28;20499;-65
2023/10/22 01:02:54;;;;;;;3.90;0.68;;;12.40;99.90;;;;;;5011354;28;20052;-65
2023/10/22 01:05:20;;;;;;;1.45;0.70;;;12.40;99.90;;;;;;5009248;28;20045;-65
2023/10/22 01:07:47;;;;;;;4.28;0.77;;;12.40;99.90;;;;;;5016987;28;20115;-65
2023/10/22 01:10:13;;;;;;;1.20;0.45;;;12.40;99.90;;;;;;4999501;28;20150;-65
2023/10/22 01:12:39;;;;;;;4.15;0.60;;;12.40;99.90;;;;;;4999993;28;20033;-65
2023/10/22 01:15:06;;;;;;;2.08;0.68;;;12.40;99.90;;;;;;5037652;28;20426;-65
2023/10/22 01:17:32;;;;;;;1.85;0.80;;;12.40;99.90;;;;;;5033099;28;20048;-65
2023/10/22 01:19:58;;;;;;;1.63;0.90;;;12.40;99.90;;;;;;5011538;28;20490;-64
2023/10/22 01:22:23;;;;;;;0.90;0.32;;;12.40;99.90;;;;;;5026110;28;20045;-64
2023/10/22 01:24:49;;;;;;;3.95;0.60;;;12.50;99.90;;;;;;5010584;28;20110;-65
2023/10/22 01:27:15;;;;;;;7.15;1.10;;;12.50;99.90;;;;;;5027492;28;20060;-65
2023/10/22 01:29:41;;;;;;;3.30;0.70;;;12.50;99.90;;;;;;5009099;28;20037;-64
2023/10/22 01:32:06;;;;;;;1.38;0.47;;;12.50;99.90;;;;;;4994566;28;20103;-64
2023/10/22 01:34:32;;;;;;;4.53;0.88;;;12.50;99.90;;;;;;5027862;28;20388;-65
2023/10/22 01:36:57;;;;;;;0.70;0.65;;;12.50;99.90;;;;;;5028919;28;20172;-64
2023/10/22 01:39:23;;;;;;;2.22;0.70;;;12.50;99.90;;;;;;5025335;28;20452;-64
2023/10/22 01:41:50;;;;;;;3.63;0.73;;;12.50;99.90;;;;;;4996880;28;20050;-65
2023/10/22 01:44:16;;;;;;;1.35;0.70;;;12.50;99.90;;;;;;5010185;28;20054;-65
2023/10/22 01:46:42;;;;;;;1.77;0.68;;;12.50;99.90;;;;;;4993397;28;20076;-65
2023/10/22 01:49:08;;;;;;;3.60;0.57;;;12.50;99.90;;;;;;5026622;28;20103;-65
2023/10/22 01:51:34;;;;;;;2.35;0.57;;;12.50;99.90;;;;;;5009184;28;20049;-65
2023/10/22 01:54:01;;;;;;;4.38;0.45;;;12.50;99.90;;;;;;5028689;28;20059;-65
2023/10/22 01:56:27;;;;;;;5.53;0.93;;;12.60;99.90;;;;;;5026314;28;20393;-65
2023/10/22 01:58:52;;;;;;;3.72;0.60;;;12.60;99.90;;;;;;4993898;28;20046;-65
2023/10/22 02:01:18;;;;;;;2.40;0.73;;;12.70;99.90;;;;;;5025533;28;20056;-64
2023/10/22 02:03:47;;;;;;;2.03;0.70;;;12.70;99.90;;;;;;5027685;28;20037;-64
2023/10/22 02:06:13;;;;;;;2.58;0.65;;;12.70;99.90;;;;;;5007168;28;20068;-65
2023/10/22 02:08:40;;;;;;;2.15;0.55;;;12.70;99.90;;;;;;5030116;28;20041;-65
2023/10/22 02:11:06;;;;;;;1.42;0.60;;;12.70;99.90;;;;;;5028029;28;20071;-64
2023/10/22 02:13:32;;;;;;;1.27;0.85;;;12.70;99.90;;;;;;5029875;28;20045;-65
2023/10/22 02:15:58;;;;;;;2.10;0.60;;;12.70;99.90;;;;;;5010326;28;20060;-64
2023/10/22 02:18:24;;;;;;;1.95;0.50;;;12.70;99.90;;;;;;5026922;28;20048;-64
2023/10/22 02:20:59;;;;;;;4.22;0.88;;;12.70;99.90;;;;;;5009554;28;20033;-65
2023/10/22 02:23:25;;;;;;;0.75;0.30;;;12.70;99.90;;;;;;5027536;28;20132;-65
2023/10/22 02:25:51;;;;;;;1.95;0.60;;;12.70;99.90;;;;;;5026207;28;20412;-65
2023/10/22 02:28:17;;;;;;;3.13;0.63;;;12.70;99.90;;;;;;4993218;28;20132;-65
2023/10/22 02:30:44;;;;;;;2.72;0.73;;;12.70;99.90;;;;;;5005583;28;20400;-65
2023/10/22 02:33:10;;;;;;;3.45;0.50;;;12.70;99.90;;;;;;5026588;28;20133;-64
2023/10/22 02:35:46;;;;;;;4.00;0.82;;;12.60;99.90;;;;;;5026354;28;20120;-64
2023/10/22 02:38:15;;;;;;;0.77;0.40;;;12.60;99.90;;;;;;5026948;28;20082;-64
2023/10/22 02:40:41;;;;;;;2.60;0.70;;;12.50;99.90;;;;;;5025490;28;20056;-64
2023/10/22 02:43:07;;;;;;;3.65;0.85;;;12.50;99.90;;;;;;5025937;28;20052;-65
2023/10/22 02:45:33;;;;;;;0.80;0.47;;;12.50;99.90;;;;;;5027246;28;20095;-65
2023/10/22 02:47:59;;;;;;;0.70;0.30;;;12.40;99.90;;;;;;5025948;28;20045;-65
2023/10/22 02:50:26;;;;;;;2.70;0.32;;;12.40;99.90;;;;;;5026417;28;20049;-65
2023/10/22 02:52:53;;;;;;;1.33;0.38;;;12.40;99.90;;;;;;5024988;28;20514;-65
2023/10/22 02:55:20;;;;;;;0.98;0.45;;;12.30;99.90;;;;;;5025609;28;20407;-64
2023/10/22 02:57:46;;;;;;;0.55;0.45;;;12.40;99.90;;;;;;5008853;28;20111;-65
2023/10/22 03:00:13;;;;;;;5.35;0.70;;;12.30;99.90;;;;;;5010201;28;20076;-65
2023/10/22 03:02:42;;;;;;;2.97;0.38;;;12.30;99.90;;;;;;5026861;28;20569;-64
2023/10/22 03:05:08;;;;;;;1.92;0.50;;;12.30;99.90;;;;;;5002491;28;20046;-65
2023/10/22 03:07:34;;;;;;;2.63;0.30;;;12.30;99.90;;;;;;5023823;28;20096;-65
2023/10/22 03:10:00;;;;;;;2.97;0.40;;;12.30;99.90;;;;;;5025788;28;20069;-64
2023/10/22 03:12:26;;;;;;;0.85;0.30;;;12.30;99.90;;;;;;5026687;28;20042;-64
2023/10/22 03:14:52;;;;;;;3.20;0.38;;;12.30;99.90;;;;;;5025420;28;20045;-64
2023/10/22 03:17:19;;;;;;;0.65;0.32;;;12.20;99.90;;;;;;5025917;28;20073;-65
2023/10/22 03:19:45;;;;;;;0.65;0.28;;;12.20;99.90;;;;;;5027494;28;20037;-64
2023/10/22 03:22:11;;;;;;;2.38;0.32;;;12.20;99.90;;;;;;5025895;28;20567;-64
2023/10/22 03:24:37;;;;;;;7.68;0.57;;;12.20;99.90;;;;;;5025733;28;20099;-64
2023/10/22 03:27:05;;;;;;;1.63;0.65;;;12.20;99.90;;;;;;5025811;28;20480;-64
2023/10/22 03:29:32;;;;;;;0.75;0.47;;;12.20;99.90;;;;;;5026878;28;20099;-64
2023/10/22 03:31:58;;;;;;;1.00;0.50;;;12.10;99.90;;;;;;5025887;28;20400;-64
2023/10/22 03:34:26;;;;;;;3.40;0.30;;;12.20;99.90;;;;;;5007390;28;20103;-64
2023/10/22 03:36:52;;;;;;;0.57;0.30;;;12.10;99.90;;;;;;5027227;28;20446;-65
2023/10/22 03:39:18;;;;;;;2.78;0.57;;;12.10;99.90;;;;;;5026113;28;20124;-64
2023/10/22 03:41:44;;;;;;;2.63;0.50;;;12.10;99.90;;;;;;5008608;28;20053;-64
2023/10/22 03:44:10;;;;;;;1.98;0.50;;;12.10;99.90;;;;;;4997966;28;20520;-64
2023/10/22 03:46:35;;;;;;;3.25;0.50;;;12.10;99.90;;;;;;5023977;28;20574;-64
2023/10/22 03:49:01;;;;;;;0.70;0.20;;;12.10;99.90;;;;;;4991922;28;20041;-65
2023/10/22 03:51:27;;;;;;;1.73;0.50;;;12.10;99.90;;;;;;5009647;28;20049;-64
2023/10/22 03:53:53;;;;;;;1.65;0.30;;;12.10;99.90;;;;;;5027510;28;20476;-65
2023/10/22 03:56:20;;;;;;;4.93;0.40;;;12.10;99.90;;;;;;5011915;28;20126;-64
2023/10/22 03:58:46;;;;;;;1.35;0.30;;;12.10;99.90;;;;;;5030109;28;20049;-64
2023/10/22 04:01:12;;;;;;;1.80;0.40;;;12.20;99.90;;;;;;5011560;28;20041;-65
2023/10/22 04:03:37;;;;;;;1.60;0.40;;;12.10;99.90;;;;;;5012301;28;20044;-65
2023/10/22 04:06:03;;;;;;;1.30;0.47;;;12.10;99.90;;;;;;5027419;28;20130;-65
2023/10/22 04:08:29;;;;;;;2.15;0.50;;;12.20;99.90;;;;;;5012218;28;20480;-65
2023/10/22 04:10:55;;;;;;;0.73;0.50;;;12.20;99.90;;;;;;5029931;28;20498;-64
2023/10/22 04:13:22;;;;;;;0.63;0.30;;;12.20;99.90;;;;;;5029920;28;20204;-64
2023/10/22 04:15:48;;;;;;;2.60;0.38;;;12.20;99.90;;;;;;5028113;28;20513;-64
2023/10/22 04:18:16;;;;;;;1.30;0.28;;;12.30;99.90;;;;;;5028938;28;20542;-64
2023/10/22 04:20:42;;;;;;;0.75;0.30;;;12.30;99.90;;;;;;5029618;28;20064;-65
2023/10/22 04:23:10;;;;;;;0.80;0.30;;;12.30;99.90;;;;;;5028703;28;20479;-64
2023/10/22 04:25:40;;;;;;;1.10;0.40;;;12.30;99.90;;;;;;5023689;28;20096;-64
2023/10/22 04:28:10;;;;;;;3.08;0.50;;;12.30;99.90;;;;;;5027865;28;20498;-64
2023/10/22 04:30:36;;;;;;;;;;;12.40;99.90;;;;;;5029414;28;20060;-64
2023/10/22 04:33:02;;;;;;;1.70;0.40;;;12.40;99.90;;;;;;5012032;28;19927;-64
2023/10/22 04:35:31;;;;;;;0.52;0.32;;;12.30;99.90;;;;;;5027141;28;20120;-65
2023/10/22 04:37:56;;;;;;;3.10;0.38;;;12.40;99.90;;;;;;5025580;28;20050;-64
2023/10/22 04:40:23;;;;;;;2.35;0.40;;;12.40;99.90;;;;;;5028458;28;20051;-65
2023/10/22 04:42:49;;;;;;;2.05;0.40;;;12.50;99.90;;;;;;5029480;28;20525;-64
2023/10/22 04:45:15;;;;;;;0.98;0.32;;;12.40;99.90;;;;;;5029288;28;20483;-64
2023/10/22 04:47:40;;;;;;;1.85;0.30;;;12.50;99.90;;;;;;5027058;28;20042;-64
2023/10/22 04:50:06;;;;;;;1.95;0.30;;;12.50;99.90;;;;;;5028143;28;20119;-64
2023/10/22 04:52:33;;;;;;;1.67;0.30;;;12.40;99.90;;;;;;5027811;28;20049;-64
2023/10/22 04:55:00;;;;;;;0.90;0.30;;;12.40;99.90;;;;;;4995435;28;20057;-65
2023/10/22 04:57:26;;;;;;;0.82;0.30;;;12.40;99.90;;;;;;5027134;28;20062;-64
2023/10/22 04:59:52;;;;;;;0.40;0.40;;;12.40;99.90;;;;;;5029112;28;20061;-64
2023/10/22 05:02:18;;;;;;;1.10;0.30;;;12.40;99.90;;;;;;5027918;28;20056;-64
2023/10/22 05:04:47;;;;;;;1.88;0.38;;;12.40;99.90;;;;;;5028870;28;20077;-64
2023/10/22 05:07:14;;;;;;;1.15;0.30;;;12.40;99.90;;;;;;5027287;28;20041;-65
2023/10/22 05:09:40;;;;;;;0.82;0.17;;;12.40;99.90;;;;;;5027944;28;20033;-65
2023/10/22 05:12:06;;;;;;;1.40;0.43;;;12.30;99.90;;;;;;5029416;28;20413;-65
2023/10/22 05:14:32;;;;;;;1.48;0.28;;;12.30;99.90;;;;;;5027747;28;20560;-65
2023/10/22 05:16:57;;;;;;;1.15;0.20;;;12.20;99.90;;;;;;5011009;28;20049;-65
2023/10/22 05:19:23;;;;;;;0.60;0.30;;;12.20;99.90;;;;;;5027572;28;20506;-64
2023/10/22 05:21:50;;;;;;;0.73;0.35;;;12.30;99.90;;;;;;5010624;28;20376;-65
2023/10/22 05:24:15;;;;;;;1.63;0.30;;;12.20;99.90;;;;;;5027984;28;20100;-65
2023/10/22 05:26:41;;;;;;;1.73;0.50;;;12.20;99.90;;;;;;5027958;28;20076;-65
2023/10/22 05:29:07;;;;;;;0.20;0.20;;;12.20;99.90;;;;;;5000750;28;20038;-64
2023/10/22 05:31:33;;;;;;;0.88;0.20;;;12.20;99.90;;;;;;5026771;28;20033;-65
2023/10/22 05:33:58;;;;;;;0.55;0.35;;;12.20;99.90;;;;;;5028301;28;20082;-64
2023/10/22 05:36:25;;;;;;;1.10;0.50;;;12.20;99.90;;;;;;5027361;28;20519;-65
2023/10/22 05:38:51;;;;;;;1.42;0.30;;;12.10;99.90;;;;;;5027919;28;20046;-65
2023/10/22 05:41:27;;;;;;;0.55;0.20;;;12.20;99.90;;;;;;5027602;28;20503;-65
2023/10/22 05:44:01;;;;;;;2.05;0.40;;;12.20;99.90;;;;;;5027847;28;20549;-65
2023/10/22 05:46:34;;;;;;;0.35;0.25;;;12.20;99.90;;;;;;5028807;28;20133;-65
2023/10/22 05:49:00;;;;;;;0.30;0.22;;;12.10;99.90;;;;;;5023295;28;20042;-65
2023/10/22 05:51:26;;;;;;;0.25;0.25;;;12.10;99.90;;;;;;5023880;28;20045;-65
2023/10/22 05:53:52;;;;;;;1.50;0.40;;;12.10;99.90;;;;;;5008982;28;20063;-65
2023/10/22 05:56:20;;;;;;;0.47;0.20;;;12.10;99.90;;;;;;5028827;28;20041;-65
2023/10/22 05:58:46;;;;;;;0.40;0.40;;;12.20;99.90;;;;;;5027191;28;20153;-64
2023/10/22 06:01:13;;;;;;;0.70;0.70;;;12.10;99.90;;;;;;5021144;28;20080;-65
2023/10/22 06:03:38;;;;;;;4.22;0.70;;;12.20;99.90;;;;;;5025418;28;20458;-65
2023/10/22 06:06:04;;;;;;;0.93;0.70;;;12.10;99.90;;;;;;5033799;28;20041;-65
2023/10/22 06:08:30;;;;;;;0.90;0.90;;;12.10;99.90;;;;;;4996479;28;20048;-64
2023/10/22 06:10:55;;;;;;;3.20;1.05;;;12.20;99.90;;;;;;5018888;28;20046;-65
2023/10/22 06:13:21;;;;;;;1.92;1.52;;;12.10;99.90;;;;;;5010099;28;20049;-65
2023/10/22 06:15:47;;;;;;;2.20;1.50;;;12.20;99.90;;;;;;5020362;28;20037;-65
2023/10/22 06:18:13;;;;;;;2.03;1.40;;;12.10;99.90;;;;;;5010257;28;20125;-65
2023/10/22 06:20:39;;;;;;;1.38;1.27;;;12.10;99.90;;;;;;5023277;28;20403;-65
2023/10/22 06:23:05;;;;;;;2.17;1.30;;;12.20;99.90;;;;;;5025786;28;20168;-65
2023/10/22 06:25:32;;;;;;;1.50;1.40;;;12.20;99.90;;;;;;5028020;28;20438;-65
2023/10/22 06:27:59;;;;;;;1.05;1.02;;;12.20;99.90;;;;;;5025925;28;20042;-65
2023/10/22 06:30:26;;;;;;;2.88;0.90;;;12.20;99.90;;;;;;5009823;28;20407;-65
2023/10/22 06:32:52;;;;;;;0.52;0.52;;;12.20;99.90;;;;;;5024642;28;20045;-65
2023/10/22 06:35:19;;;;;;;0.40;0.40;;;12.20;99.90;;;;;;5007168;28;20053;-65
2023/10/22 06:37:47;;;;;;;0.45;0.40;;;12.30;99.90;;;;;;5002621;28;20488;-65
2023/10/22 06:40:13;;;;;;;0.93;0.32;;;12.20;99.90;;;;;;5026566;28;20045;-65
2023/10/22 06:42:40;;;;;;;0.40;0.40;;;12.30;99.90;;;;;;5004163;28;20037;-65
2023/10/22 06:45:07;;;;;;;0.40;0.40;;;12.30;99.90;;;;;;4987650;28;20467;-65
2023/10/22 06:47:39;;;;;;;0.45;0.45;;;12.30;99.90;;;;;;4987755;28;20041;-65
2023/10/22 06:50:11;;;;;;;0.40;0.40;;;12.40;99.90;;;;;;5024122;28;20038;-65
2023/10/22 06:52:38;;;;;;;0.20;0.20;;;12.30;99.90;;;;;;5027423;28;20045;-65
2023/10/22 06:55:05;;;;;;;0.20;0.20;;;12.40;99.90;;;;;;5024410;28;20488;-65
2023/10/22 06:57:31;;;;;;;0.10;0.10;;;12.40;99.90;;;;;;5001970;28;20049;-66
2023/10/22 06:59:58;;;;;;;2.08;0.25;;;12.40;99.90;;;;;;5009187;28;20049;-66
2023/10/22 07:02:25;;;;;;;0.00;0.00;;;12.40;99.90;;;;;;5012689;28;20088;-66
2023/10/22 07:04:55;;;;;;;0.28;0.10;;;12.20;99.90;;;;;;5020258;28;20160;-65
2023/10/22 07:07:22;;;;;;;0.80;0.20;;;12.20;99.90;;;;;;5024055;28;20045;-65
2023/10/22 07:09:48;;;;;;;0.28;0.10;;;12.10;99.90;;;;;;5022797;28;20053;-66
2023/10/22 07:12:14;;;;;;;0.17;0.17;;;12.10;99.90;;;;;;5012705;28;20033;-65
2023/10/22 07:14:40;;;;;;;0.77;0.30;;;12.10;99.90;;;;;;5026547;28;20123;-65
2023/10/22 07:17:06;;;;;;;0.25;0.20;;;12.10;99.90;;;;;;5027472;28;20488;-65
2023/10/22 07:19:31;;;;;;;0.57;0.38;;;12.10;99.90;;;;;;5025160;28;20095;-65
2023/10/22 07:21:57;;;;;;;0.40;0.30;;;12.10;99.90;;;;;;5019236;28;20042;-66
2023/10/22 07:24:23;;;;;;;3.22;0.50;;;12.10;99.90;;;;;;5024573;28;20068;-66
2023/10/22 07:26:49;;;;;;;1.67;0.40;;;12.10;99.90;;;;;;5029055;28;20057;-65
2023/10/22 07:29:15;;;;;;;1.60;0.25;;;12.10;99.90;;;;;;5028906;28;20045;-65
2023/10/22 07:31:43;;;;;;;0.90;0.25;;;12.00;99.90;;;;;;5015429;28;20041;-65
2023/10/22 07:34:09;;;;;;;0.45;0.22;;;12.00;99.90;;;;;;5031045;28;20041;-66
2023/10/22 07:36:35;;;;;;;4.00;0.28;;;12.00;99.90;;;;;;5029857;28;20522;-65
2023/10/22 07:39:01;;;;;;;0.77;0.30;;;12.00;99.90;;;;;;5030619;28;20049;-65
2023/10/22 07:41:27;;;;;;;0.73;0.20;;;11.90;99.90;;;;;;5027909;28;20080;-65
2023/10/22 07:43:54;;;;;;;0.30;0.30;;;11.90;99.90;;;;;;5027160;28;20115;-65
2023/10/22 07:46:20;;;;;;;1.52;0.45;;;11.90;99.90;;;;;;5024351;28;20514;-65
2023/10/22 07:48:45;;;;;;;2.30;0.45;;;11.90;99.90;;;;;;5010354;28;20042;-65
2023/10/22 07:51:14;;;;;;;0.82;0.43;;;11.90;99.90;;;;;;5006218;28;20111;-65
2023/10/22 07:53:40;;;;;;;1.10;0.40;;;12.00;99.90;;;;;;5029116;28;20407;-65
2023/10/22 07:56:06;;;;;;;3.22;0.40;;;11.90;99.90;;;;;;4999745;28;20050;-65
2023/10/22 07:58:32;;;;;;;2.08;0.73;;;12.00;99.90;;;;;;5026324;28;20045;-65
2023/10/22 08:00:59;;;;;;;1.58;0.45;;;12.00;99.90;;;;;;5010762;28;20064;-64
2023/10/22 08:03:28;;;;;;;2.05;0.47;;;12.00;99.90;;;;;;5025017;28;20045;-65
2023/10/22 08:05:54;;;;;;;0.43;0.32;;;11.90;99.90;;;;;;5030510;28;20542;-64
2023/10/22 08:08:19;;;;;;;1.63;0.70;;;12.00;99.90;;;;;;5029273;28;20149;-64
2023/10/22 08:10:45;;;;;;;1.23;0.35;;;11.90;99.90;;;;;;5028588;28;20064;-65
2023/10/22 08:13:11;;;;;;;1.23;0.40;;;11.90;99.90;;;;;;5009917;28;20100;-65
2023/10/22 08:15:37;;;;;;;5.63;0.65;;;11.90;99.90;;;;;;5033969;28;20128;-65
2023/10/22 08:18:03;;;;;;;0.30;0.30;;;12.00;99.90;;;;;;5030101;28;20045;-65
2023/10/22 08:20:28;;;;;;;0.75;0.15;;;12.00;99.90;;;;;;5027081;28;20041;-65
2023/10/22 08:22:55;;;;;;;2.05;0.40;;;11.80;99.90;;;;;;4995766;28;20040;-65
2023/10/22 08:25:21;;;;;;;0.95;0.30;;;11.80;99.90;;;;;;5029243;28;20399;-65
2023/10/22 08:27:47;;;;;;;0.17;0.17;;;11.70;99.90;;;;;;5010215;28;20047;-65
2023/10/22 08:30:13;;;;;;;1.92;0.30;;;11.70;99.90;;;;;;5000558;28;20368;-64
2023/10/22 08:32:44;;;;;;;0.47;0.43;;;11.60;99.90;;;;;;5029637;28;20070;-65
2023/10/22 08:35:09;;;;;;;1.00;0.20;;;11.60;99.90;;;;;;5011738;28;20079;-65
2023/10/22 08:37:35;;;;;;;2.13;0.40;;;11.60;99.90;;;;;;5027955;28;20049;-65
2023/10/22 08:40:01;;;;;;;3.75;0.40;;;11.60;99.90;;;;;;5024260;28;20096;-65
2023/10/22 08:42:27;;;;;;;1.30;0.38;;;11.70;99.90;;;;;;5027779;28;20080;-65
2023/10/22 08:44:53;;;;;;;2.50;0.45;;;11.70;99.90;;;;;;5029495;28;20117;-66
2023/10/22 08:47:19;;;;;;;4.10;0.60;;;11.80;99.90;;;;;;5006025;28;20049;-65
2023/10/22 08:49:49;;;;;;;4.32;1.10;;;11.80;99.90;;;;;;5019305;28;20045;-65
2023/10/22 08:52:15;;;;;;;8.75;0.90;;;11.90;99.90;;;;;;5029457;28;20045;-65
2023/10/22 08:54:40;;;;;;;8.80;0.90;;;12.00;99.90;;;;;;5033214;28;20167;-65
2023/10/22 08:57:06;;;;;;;5.00;0.93;;;12.00;99.90;;;;;;5028958;28;20084;-65
2023/10/22 08:59:37;;;;;;;9.07;0.80;;;12.00;99.90;;;;;;5009018;28;20050;-65
2023/10/22 09:02:15;;;;;;;4.97;0.90;;;12.20;99.90;;;;;;5029093;28;20167;-65
2023/10/22 09:04:41;;;;;;;4.28;0.50;;;12.20;99.90;;;;;;5021091;28;20415;-65
2023/10/22 09:07:07;;;;;;;11.20;1.25;;;12.20;99.90;;;;;;4993629;28;20060;-65
2023/10/22 09:09:38;;;;;;;5.65;0.80;;;12.30;99.90;;;;;;5002762;28;20052;-65
2023/10/22 09:12:08;;;;;;;6.53;1.17;;;12.30;99.90;;;;;;5021300;28;20342;-65
2023/10/22 09:14:35;;;;;;;3.50;0.82;;;12.40;99.90;;;;;;4994530;28;20400;-65
2023/10/22 09:17:17;;;;;;;3.42;0.70;;;12.40;99.90;;;;;;5007945;28;20041;-65
2023/10/22 09:19:51;;;;;;;3.35;0.95;;;12.40;99.90;;;;;;5022741;28;20500;-65
2023/10/22 09:22:27;;;;;;;8.57;1.20;;;12.40;99.90;;;;;;5008169;28;20046;-65
2023/10/22 09:24:56;;;;;;;5.20;0.52;;;12.40;99.90;;;;;;5018260;28;20326;-65
2023/10/22 09:27:30;;;;;;;6.40;1.20;;;12.50;99.90;;;;;;5028434;28;20449;-65
2023/10/22 09:29:58;;;;;;;4.47;1.08;;;12.50;99.90;;;;;;5003890;28;20045;-65
2023/10/22 09:32:25;;;;;;;0.70;0.45;;;12.60;99.90;;;;;;5022407;28;20048;-65
2023/10/22 09:34:52;;;;;;;1.73;0.60;;;12.60;99.90;;;;;;5028388;28;20041;-65
2023/10/22 09:37:18;;;;;;;6.55;1.20;;;12.70;99.90;;;;;;5026574;28;20129;-64
2023/10/22 09:39:45;;;;;;;6.35;0.80;;;12.80;99.90;;;;;;5010517;28;20431;-65
2023/10/22 09:42:12;;;;;;;9.75;1.20;;;12.70;99.90;;;;;;5004961;28;20050;-65
2023/10/22 09:44:40;;;;;;;4.28;1.05;;;12.80;99.90;;;;;;5023598;28;20041;-65
2023/10/22 09:47:07;;;;;;;7.13;0.95;;;12.90;99.90;;;;;;5006337;28;20045;-65
2023/10/22 09:49:35;;;;;;;3.53;0.90;;;12.80;99.90;;;;;;5020531;28;20120;-64
2023/10/22 09:52:06;;;;;;;3.42;0.90;;;12.90;99.90;;;;;;5022443;28;20380;-64
2023/10/22 09:54:39;;;;;;;6.07;1.10;;;12.90;99.90;;;;;;5026636;28;20041;-64
2023/10/22 09:57:14;;;;;;;3.10;0.65;;;13.00;99.90;;;;;;5028221;28;20373;-64
2023/10/22 09:59:41;;;;;;;8.05;0.85;;;13.10;99.90;;;;;;5026814;28;20136;-65
2023/10/22 10:02:15;;;;;;;2.25;1.00;;;13.10;99.90;;;;;;5026755;28;20049;-65
2023/10/22 10:04:42;;;;;;;1.38;0.50;;;13.20;99.90;;;;;;5013697;28;20120;-64
2023/10/22 10:07:08;;;;;;;2.60;0.70;;;13.20;99.90;;;;;;5027845;28;20041;-65
2023/10/22 10:09:45;;;;;;;2.47;0.90;;;13.30;99.90;;;;;;5019138;28;20387;-65
2023/10/22 10:12:16;;;;;;;2.83;0.80;;;13.50;99.90;;;;;;4990543;28;20042;-65
2023/10/22 10:14:45;;;;;;;2.78;0.52;;;13.70;99.90;;;;;;5025707;28;20045;-65
2023/10/22 10:17:16;;;;;;;5.55;0.98;;;13.80;99.90;;;;;;5025820;28;20099;-64
2023/10/22 10:19:43;;;;;;;5.47;0.90;;;13.80;99.90;;;;;;5010230;28;20045;-65
2023/10/22 10:22:09;;;;;;;1.80;0.50;;;13.80;99.90;;;;;;5023137;28;20081;-65
2023/10/22 10:24:35;;;;;;;1.02;0.35;;;13.80;99.90;;;;;;5005046;28;20133;-64
2023/10/22 10:27:01;;;;;;;0.55;0.25;;;13.80;99.90;;;;;;5022066;28;20069;-64
2023/10/22 10:29:29;;;;;;;2.83;0.30;;;13.80;99.90;;;;;;5024507;28;20041;-64
2023/10/22 10:32:15;;;;;;;0.85;0.40;;;13.80;99.90;;;;;;5027760;28;20542;-64
2023/10/22 10:34:49;;;;;;;1.35;0.30;;;13.70;99.90;;;;;;5004587;28;20099;-65
2023/10/22 10:37:20;;;;;;;2.92;0.70;;;13.60;99.90;;;;;;5006460;28;20473;-64
2023/10/22 10:39:49;;;;;;;2.08;0.40;;;13.70;99.90;;;;;;4992568;28;20053;-64
2023/10/22 10:42:38;;;;;;;2.92;0.38;;;13.70;99.90;;;;;;5008296;28;20045;-64
2023/10/22 10:45:07;;;;;;;0.63;0.30;;;13.70;99.90;;;;;;4995510;28;20096;-65
2023/10/22 10:47:39;;;;;;;1.58;0.40;;;13.80;99.90;;;;;;5024202;28;20049;-64
2023/10/22 10:50:10;;;;;;;6.03;0.35;;;13.70;99.90;;;;;;5027196;28;20486;-65
2023/10/22 10:52:48;;;;;;;2.85;0.50;;;13.60;99.90;;;;;;5026429;28;20053;-64
2023/10/22 10:55:20;;;;;;;0.20;0.20;;;13.50;99.90;;;;;;5007764;28;20049;-65
2023/10/22 10:57:53;;;;;;;1.05;0.50;;;13.50;99.90;;;;;;5026994;28;20589;-64
2023/10/22 11:00:20;;;;;;;3.40;0.40;;;13.60;99.90;;;;;;5007918;28;20240;-64
2023/10/22 11:02:52;;;;;;;1.75;0.50;;;13.80;99.90;;;;;;5027076;28;20062;-64
2023/10/22 11:05:37;;;;;;;2.35;0.22;;;13.90;99.90;;;;;;5025386;28;20415;-64
2023/10/22 11:08:05;;;;;;;3.03;0.40;;;14.00;99.90;;;;;;5026090;28;20631;-64
2023/10/22 11:10:30;;;;;;;1.65;0.50;;;14.20;99.90;;;;;;5026721;28;20060;-64
2023/10/22 11:13:05;;;;;;;3.25;0.55;;;14.30;99.90;;;;;;5007827;28;20045;-64
2023/10/22 11:15:36;;;;;;;0.20;0.20;;;14.20;99.90;;;;;;5015060;28;20061;-64
2023/10/22 11:18:05;;;;;;;1.77;0.38;;;14.00;99.90;;;;;;5011482;28;20491;-64
2023/10/22 11:20:31;;;;;;;2.08;0.70;;;14.00;99.90;;;;;;5034696;28;20048;-64
2023/10/22 11:22:58;;;;;;;1.65;0.40;;;13.90;99.90;;;;;;5022660;28;20188;-65
2023/10/22 11:25:25;;;;;;;4.18;1.15;;;13.80;99.90;;;;;;5036375;28;20052;-64
2023/10/22 11:27:51;;;;;;;0.47;0.30;;;13.70;99.90;;;;;;5040755;28;20088;-64
2023/10/22 11:30:38;;;;;;;1.60;0.30;;;13.70;99.90;;;;;;5041253;28;20037;-64
2023/10/22 11:33:25;;;;;;;1.83;0.57;;;13.60;99.90;;;;;;5036609;28;20101;-64
2023/10/22 11:35:55;;;;;;;1.02;0.00;;;13.50;99.90;;;;;;5034433;28;20085;-64
2023/10/22 11:38:21;;;;;;;0.13;0.13;;;13.50;99.50;;;;;;5044300;28;20048;-65
2023/10/22 11:40:53;;;;;;;0.17;0.17;;;13.50;99.50;;;;;;5027998;28;20041;-65
2023/10/22 11:43:19;;;;;;;2.65;0.47;;;13.50;99.90;;;;;;5040190;28;20044;-65
2023/10/22 11:45:56;;;;;;;0.20;0.20;;;13.60;99.90;;;;;;5035307;28;20050;-65
2023/10/22 11:48:24;;;;;;;1.65;0.25;;;13.60;98.80;;;;;;4988922;28;20038;-64
2023/10/22 11:50:58;;;;;;;1.67;0.70;;;13.70;99.90;;;;;;4969507;28;20041;-64
2023/10/22 11:53:39;;;;;;;5.35;0.40;;;13.90;99.90;;;;;;5024029;28;20049;-64
2023/10/22 11:56:05;;;;;;;3.80;0.82;;;14.00;99.90;;;;;;5005831;28;20085;-64
2023/10/22 11:58:31;;;;;;;2.00;0.40;;;14.10;99.90;;;;;;5004427;28;20092;-64
2023/10/22 12:00:57;;;;;;;1.50;0.40;;;14.10;99.90;;;;;;5028923;28;20040;-64
2023/10/22 12:03:23;;;;;;;2.17;0.38;;;14.10;99.90;;;;;;5040402;28;20402;-64
2023/10/22 12:05:49;;;;;;;1.25;0.30;;;14.00;95.30;;;;;;5037005;28;20451;-64
2023/10/22 12:08:15;;;;;;;0.73;0.13;;;13.90;93.20;;;;;;5024470;28;20049;-64
2023/10/22 12:10:41;;;;;;;2.35;0.38;;;13.70;95.90;;;;;;5025992;28;20510;-64
2023/10/22 12:13:07;;;;;;;1.17;0.40;;;13.70;95.30;;;;;;5022698;28;20368;-63
2023/10/22 12:15:33;;;;;;;1.23;0.40;;;13.80;99.90;;;;;;5030220;28;20444;-64
2023/10/22 12:17:59;;;;;;;1.85;0.30;;;13.90;99.90;;;;;;5027060;28;20036;-63
2023/10/22 12:20:25;;;;;;;1.17;0.30;;;14.20;99.90;;;;;;5030664;28;20033;-63
2023/10/22 12:22:51;;;;;;;0.55;0.20;;;14.40;99.90;;;;;;5028842;28;20071;-64
2023/10/22 12:25:16;;;;;;;2.65;0.32;;;14.50;99.80;;;;;;5029627;28;20045;-64
2023/10/22 12:27:42;;;;;;;1.05;0.40;;;14.50;99.90;;;;;;5010104;28;20057;-64
2023/10/22 12:30:08;;;;;;;0.50;0.10;;;14.50;99.50;;;;;;5010796;28;20065;-63
2023/10/22 12:32:34;;;;;;;1.48;0.40;;;14.40;92.80;;;;;;5005896;28;20133;-63
2023/10/22 12:35:00;;;;;;;1.17;0.20;;;14.20;90.10;;;;;;4978997;28;20243;-64
2023/10/22 12:37:26;;;;;;;0.73;0.10;;;14.00;87.90;;;;;;5021611;28;20579;-63
2023/10/22 12:39:52;;;;;;;0.77;0.50;;;14.00;94.30;;;;;;5026811;28;20041;-63
2023/10/22 12:42:18;;;;;;;0.68;0.28;;;13.90;96.80;;;;;;5028364;28;20115;-63
2023/10/22 12:44:44;;;;;;;2.95;0.25;;;13.80;96.30;;;;;;5029006;28;20088;-64
2023/10/22 12:47:14;;;;;;;1.27;0.40;;;13.70;97.00;;;;;;5010893;28;20049;-63
2023/10/22 12:49:41;;;;;;;3.00;0.30;;;13.70;97.00;;;;;;5011518;28;20632;-63